createdAt,value
2022-12-16T00:00:49.906Z,-1.27
2022-12-16T00:03:58.378Z,-1.26
2022-12-16T00:07:04.082Z,-1.32
2022-12-16T00:10:11.418Z,-1.34
2022-12-16T00:13:17.121Z,-1.33
2022-12-16T00:16:23.866Z,-1.35
2022-12-16T00:19:29.653Z,-1.39
2022-12-16T00:22:35.429Z,-1.44
2022-12-16T00:25:42.139Z,-1.51
2022-12-16T00:28:48.145Z,-1.59
2022-12-16T00:31:53.797Z,-1.60
2022-12-16T00:34:59.653Z,-1.60
2022-12-16T00:38:05.213Z,-1.59
2022-12-16T00:41:10.765Z,-1.57
2022-12-16T00:44:16.410Z,-1.51
2022-12-16T00:47:21.947Z,-1.45
2022-12-16T00:50:28.021Z,-1.44
2022-12-16T00:53:33.887Z,-1.51
2022-12-16T00:56:39.845Z,-1.60
2022-12-16T00:59:45.689Z,-1.65
2022-12-16T01:02:53.563Z,-1.67
2022-12-16T01:05:59.451Z,-1.64
2022-12-16T01:09:05.203Z,-1.60
2022-12-16T01:12:11.059Z,-1.64
2022-12-16T01:15:17.224Z,-1.66
2022-12-16T01:18:22.873Z,-1.63
2022-12-16T01:21:28.525Z,-1.65
2022-12-16T01:24:34.372Z,-1.73
2022-12-16T01:27:40.138Z,-1.73
2022-12-16T01:30:45.789Z,-1.73
2022-12-16T01:33:51.849Z,-1.70
2022-12-16T01:36:57.501Z,-1.68
2022-12-16T01:40:03.361Z,-1.71
2022-12-16T01:43:13.643Z,-1.76
2022-12-16T01:46:24.698Z,-1.76
2022-12-16T01:49:35.354Z,-1.74
2022-12-16T01:52:47.740Z,-1.71
2022-12-16T01:55:56.753Z,-1.68
2022-12-16T01:59:03.414Z,-1.68
2022-12-16T02:02:10.194Z,-1.69
2022-12-16T02:05:24.625Z,-1.70
2022-12-16T02:08:30.372Z,-1.70
2022-12-16T02:12:04.448Z,-1.71
2022-12-16T02:15:24.889Z,-1.67
2022-12-16T02:18:42.215Z,-1.60
2022-12-16T02:21:53.910Z,-1.53
2022-12-16T02:25:25.784Z,-1.47
2022-12-16T02:28:51.805Z,-1.42
2022-12-16T02:32:09.228Z,-1.44
2022-12-16T02:35:26.351Z,-1.48
2022-12-16T02:38:43.164Z,-1.55
2022-12-16T02:41:57.936Z,-1.63
2022-12-16T02:45:09.598Z,-1.66
2022-12-16T02:48:15.174Z,-1.66
2022-12-16T02:51:21.537Z,-1.68
2022-12-16T02:54:25.963Z,-1.71
2022-12-16T02:58:00.537Z,-1.74
2022-12-16T03:01:13.470Z,-1.77
2022-12-16T03:04:23.675Z,-1.77
2022-12-16T03:07:32.033Z,-1.80
2022-12-16T03:10:46.152Z,-1.82
2022-12-16T03:13:55.888Z,-1.81
2022-12-16T03:17:03.109Z,-1.83
2022-12-16T03:20:14.138Z,-1.83
2022-12-16T03:23:24.209Z,-1.77
2022-12-16T03:26:35.546Z,-1.70
2022-12-16T03:29:47.903Z,-1.64
2022-12-16T03:33:00.819Z,-1.58
2022-12-16T03:36:11.599Z,-1.51
2022-12-16T03:39:20.319Z,-1.47
2022-12-16T03:42:28.021Z,-1.43
2022-12-16T03:45:38.378Z,-1.41
2022-12-16T03:48:50.917Z,-1.37
2022-12-16T03:51:57.481Z,-1.34
2022-12-16T03:55:03.025Z,-1.33
2022-12-16T03:58:08.669Z,-1.31
2022-12-16T04:01:15.808Z,-1.28
2022-12-16T04:04:21.611Z,-1.27
2022-12-16T04:07:27.078Z,-1.24
2022-12-16T04:10:53.394Z,-1.20
2022-12-16T04:14:17.173Z,-1.19
2022-12-16T04:17:40.844Z,-1.19
2022-12-16T04:21:08.112Z,-1.20
2022-12-16T04:24:20.513Z,-1.26
2022-12-16T04:27:26.172Z,-1.35
2022-12-16T04:30:35.001Z,-1.40
2022-12-16T04:33:58.521Z,-1.42
2022-12-16T04:37:22.648Z,-1.44
2022-12-16T04:40:45.813Z,-1.43
2022-12-16T04:44:09.279Z,-1.38
2022-12-16T04:47:32.837Z,-1.29
2022-12-16T04:50:56.213Z,-1.21
2022-12-16T04:54:19.483Z,-1.15
2022-12-16T04:57:42.850Z,-1.12
2022-12-16T05:01:07.939Z,-1.14
2022-12-16T05:04:31.530Z,-1.10
2022-12-16T05:07:54.999Z,-1.06
2022-12-16T05:11:18.468Z,-1.03
2022-12-16T05:14:41.935Z,-1.07
2022-12-16T05:18:05.102Z,-1.14
2022-12-16T05:21:28.775Z,-1.21
2022-12-16T05:24:53.201Z,-1.24
2022-12-16T05:28:17.474Z,-1.24
2022-12-16T05:31:42.807Z,-1.26
2022-12-16T05:35:06.248Z,-1.28
2022-12-16T05:38:29.603Z,-1.25
2022-12-16T05:41:52.841Z,-1.18
2022-12-16T05:45:15.927Z,-1.14
2022-12-16T05:48:43.114Z,-1.11
2022-12-16T05:52:09.217Z,-1.08
2022-12-16T05:55:34.190Z,-1.05
2022-12-16T05:58:56.972Z,-1.01
2022-12-16T06:02:20.687Z,-0.97
2022-12-16T06:05:43.911Z,-0.91
2022-12-16T06:09:07.172Z,-0.86
2022-12-16T06:12:30.645Z,-0.82
2022-12-16T06:15:53.774Z,-0.78
2022-12-16T06:19:16.913Z,-0.76
2022-12-16T06:22:40.336Z,-0.74
2022-12-16T06:26:03.704Z,-0.70
2022-12-16T06:29:29.226Z,-0.66
2022-12-16T06:32:57.588Z,-0.68
2022-12-16T06:36:20.668Z,-0.75
2022-12-16T06:39:45.033Z,-0.76
2022-12-16T06:43:09.959Z,-0.72
2022-12-16T06:46:33.499Z,-0.69
2022-12-16T06:49:57.000Z,-0.63
2022-12-16T06:53:20.573Z,-0.63
2022-12-16T06:56:43.604Z,-0.63
2022-12-16T07:00:06.582Z,-0.61
2022-12-16T07:03:35.362Z,-0.59
2022-12-16T07:06:59.261Z,-0.53
2022-12-16T07:10:25.189Z,-0.48
2022-12-16T07:13:46.911Z,-0.46
2022-12-16T07:17:15.243Z,-0.50
2022-12-16T07:20:40.056Z,-0.63
2022-12-16T07:24:03.368Z,-0.69
2022-12-16T07:27:26.513Z,-0.74
2022-12-16T07:30:49.795Z,-0.76
2022-12-16T07:34:12.957Z,-0.74
2022-12-16T07:37:36.544Z,-0.75
2022-12-16T07:40:59.801Z,-0.76
2022-12-16T07:44:23.160Z,-0.71
2022-12-16T07:47:46.293Z,-0.63
2022-12-16T07:51:09.695Z,-0.58
2022-12-16T07:54:32.809Z,-0.57
2022-12-16T07:57:56.218Z,-0.61
2022-12-16T08:01:20.979Z,-0.65
2022-12-16T08:04:44.490Z,-0.68
2022-12-16T08:08:07.850Z,-0.70
2022-12-16T08:11:31.123Z,-0.72
2022-12-16T08:14:54.380Z,-0.71
2022-12-16T08:18:19.383Z,-0.69
2022-12-16T08:21:42.569Z,-0.69
2022-12-16T08:25:05.613Z,-0.68
2022-12-16T08:28:28.893Z,-0.62
2022-12-16T08:31:52.245Z,-0.55
2022-12-16T08:35:19.501Z,-0.46
2022-12-16T08:38:42.767Z,-0.37
2022-12-16T08:42:06.341Z,-0.31
2022-12-16T08:45:30.524Z,-0.27
2022-12-16T08:48:53.790Z,-0.25
2022-12-16T08:52:31.512Z,-0.22
2022-12-16T08:55:55.912Z,-0.24
2022-12-16T08:59:19.457Z,-0.26
2022-12-16T09:02:43.084Z,-0.24
2022-12-16T09:06:08.850Z,-0.21
2022-12-16T09:09:32.322Z,-0.16
2022-12-16T09:12:55.483Z,-0.18
2022-12-16T09:16:20.021Z,-0.18
2022-12-16T09:19:43.217Z,-0.12
2022-12-16T09:23:06.301Z,-0.04
2022-12-16T09:26:29.616Z,0.00
2022-12-16T09:30:04.406Z,0.06
2022-12-16T09:33:27.975Z,0.13
2022-12-16T09:36:51.109Z,0.21
2022-12-16T09:40:14.305Z,0.25
2022-12-16T09:43:57.193Z,0.32
2022-12-16T09:47:28.065Z,0.39
2022-12-16T09:50:54.710Z,0.45
2022-12-16T09:54:20.862Z,0.48
2022-12-16T09:57:49.647Z,0.51
2022-12-16T10:01:15.101Z,0.57
2022-12-16T10:04:38.930Z,0.63
2022-12-16T10:08:08.952Z,0.70
2022-12-16T10:11:43.378Z,0.77
2022-12-16T10:15:09.920Z,0.81
2022-12-16T10:33:32.445Z,1.13
2022-12-16T10:36:58.276Z,1.27
2022-12-16T10:40:23.492Z,1.20
2022-12-16T10:43:54.862Z,1.11
2022-12-16T10:47:19.228Z,0.99
2022-12-16T11:03:57.093Z,1.31
2022-12-16T11:07:20.324Z,1.43
2022-12-16T11:10:50.760Z,1.41
2022-12-16T11:14:33.966Z,1.36
2022-12-16T11:17:57.330Z,1.32
2022-12-16T11:21:36.366Z,1.26
2022-12-16T11:24:59.629Z,1.26
2022-12-16T11:28:30.266Z,1.28
2022-12-16T11:31:57.961Z,1.30
2022-12-16T11:35:28.871Z,1.30
2022-12-16T11:38:58.798Z,1.32
2022-12-16T11:42:23.569Z,1.32
2022-12-16T11:45:47.273Z,1.29
2022-12-16T11:49:13.814Z,1.29
2022-12-16T11:52:41.994Z,1.29
2022-12-16T11:56:14.187Z,1.26
2022-12-16T11:59:45.292Z,1.12
2022-12-16T12:03:15.862Z,1.09
2022-12-16T12:06:44.644Z,1.12
2022-12-16T12:30:24.976Z,1.80
2022-12-16T12:33:55.755Z,1.84
2022-12-16T12:37:30.965Z,1.75
2022-12-16T12:41:06.455Z,1.69
2022-12-16T12:44:48.561Z,1.62
2022-12-16T12:48:34.569Z,1.58
2022-12-16T12:52:05.189Z,1.55
2022-12-16T12:55:36.132Z,1.45
2022-12-16T12:59:01.166Z,1.36
2022-12-16T13:02:31.594Z,1.32
2022-12-16T13:05:57.088Z,1.29
2022-12-16T13:09:20.558Z,1.28
2022-12-16T13:12:47.370Z,1.22
2022-12-16T13:16:16.150Z,1.17
2022-12-16T13:20:11.427Z,1.16
2022-12-16T13:23:59.047Z,1.15
2022-12-16T13:27:22.724Z,1.13
2022-12-16T13:30:47.458Z,1.07
2022-12-16T13:34:13.859Z,1.02
2022-12-16T13:37:45.121Z,0.99
2022-12-16T13:41:15.237Z,0.95
2022-12-16T13:45:09.933Z,0.93
2022-12-16T13:48:52.343Z,0.92
2022-12-16T13:52:23.397Z,0.89
2022-12-16T13:55:49.705Z,0.87
2022-12-16T13:59:18.964Z,0.87
2022-12-16T14:02:50.474Z,0.87
2022-12-16T14:06:14.887Z,0.86
2022-12-16T14:09:49.723Z,0.86
2022-12-16T14:13:21.793Z,0.83
2022-12-16T14:16:57.188Z,0.79
2022-12-16T14:20:29.548Z,0.78
2022-12-16T14:24:01.107Z,0.76
2022-12-16T14:27:33.867Z,0.72
2022-12-16T14:30:58.359Z,0.68
2022-12-16T14:34:23.469Z,0.65
2022-12-16T14:37:55.167Z,0.61
2022-12-16T14:41:18.497Z,0.58
2022-12-16T14:44:43.626Z,0.56
2022-12-16T14:48:12.090Z,0.56
2022-12-16T14:51:50.201Z,0.56
2022-12-16T14:55:13.567Z,0.59
2022-12-16T14:58:38.984Z,0.61
2022-12-16T15:02:02.941Z,0.59
2022-12-16T15:05:27.871Z,0.57
2022-12-16T15:08:55.125Z,0.57
2022-12-16T15:12:20.336Z,0.56
2022-12-16T15:15:50.257Z,0.58
2022-12-16T15:19:19.306Z,0.57
2022-12-16T15:22:42.831Z,0.54
2022-12-16T15:26:13.361Z,0.53
2022-12-16T15:29:52.113Z,0.50
2022-12-16T15:33:15.353Z,0.46
2022-12-16T15:36:50.598Z,0.43
2022-12-16T15:40:13.861Z,0.41
2022-12-16T15:43:54.845Z,0.38
2022-12-16T15:47:20.661Z,0.35
2022-12-16T15:50:46.081Z,0.32
2022-12-16T15:54:22.252Z,0.33
2022-12-16T15:57:51.454Z,0.32
2022-12-16T16:01:19.610Z,0.32
2022-12-16T16:04:45.620Z,0.34
2022-12-16T16:08:08.826Z,0.36
2022-12-16T16:11:32.010Z,0.33
2022-12-16T16:14:55.352Z,0.29
2022-12-16T16:18:31.930Z,0.29
2022-12-16T16:21:55.193Z,0.28
2022-12-16T16:25:30.236Z,0.28
2022-12-16T16:28:53.909Z,0.31
2022-12-16T16:32:17.297Z,0.34
2022-12-16T16:35:40.437Z,0.33
2022-12-16T16:39:04.009Z,0.35
2022-12-16T16:42:28.395Z,0.36
2022-12-16T16:45:51.709Z,0.33
2022-12-16T16:49:14.724Z,0.29
2022-12-16T16:52:39.976Z,0.21
2022-12-16T16:56:03.295Z,0.19
2022-12-16T16:59:28.515Z,0.19
2022-12-16T17:02:51.828Z,0.17
2022-12-16T17:06:15.984Z,0.14
2022-12-16T17:09:39.226Z,0.12
2022-12-16T17:13:04.744Z,0.14
2022-12-16T17:16:28.511Z,0.12
2022-12-16T17:19:52.297Z,0.10
2022-12-16T17:23:15.357Z,0.07
2022-12-16T17:26:39.297Z,0.05
2022-12-16T17:30:02.818Z,0.06
2022-12-16T17:33:25.474Z,0.06
2022-12-16T17:36:48.721Z,0.05
2022-12-16T17:40:23.660Z,-0.03
2022-12-16T17:43:47.231Z,-0.06
2022-12-16T17:47:10.205Z,-0.09
2022-12-16T17:50:33.664Z,-0.08
2022-12-16T17:54:00.798Z,-0.06
2022-12-16T17:57:26.536Z,-0.04
2022-12-16T18:00:49.802Z,-0.05
2022-12-16T18:04:12.892Z,-0.07
2022-12-16T18:07:36.198Z,-0.07
2022-12-16T18:10:59.492Z,-0.08
2022-12-16T18:14:22.858Z,-0.12
2022-12-16T18:17:46.327Z,-0.15
2022-12-16T18:21:09.592Z,-0.12
2022-12-16T18:24:33.062Z,-0.11
2022-12-16T18:27:57.556Z,-0.12
2022-12-16T18:31:25.193Z,-0.11
2022-12-16T18:34:48.590Z,-0.14
2022-12-16T18:38:16.276Z,-0.17
2022-12-16T18:41:41.467Z,-0.19
2022-12-16T18:45:07.395Z,-0.21
2022-12-16T18:48:28.918Z,-0.23
2022-12-16T18:51:52.387Z,-0.26
2022-12-16T18:55:27.223Z,-0.27
2022-12-16T18:58:51.586Z,-0.29
2022-12-16T19:02:15.883Z,-0.27
2022-12-16T19:05:39.475Z,-0.29
2022-12-16T19:09:02.742Z,-0.33
2022-12-16T19:12:26.825Z,-0.34
2022-12-16T19:15:49.756Z,-0.31
2022-12-16T19:19:19.323Z,-0.28
2022-12-16T19:22:43.584Z,-0.27
2022-12-16T19:26:06.843Z,-0.26
2022-12-16T19:29:30.631Z,-0.28
2022-12-16T19:32:53.987Z,-0.30
2022-12-16T19:36:19.673Z,-0.28
2022-12-16T19:39:42.873Z,-0.25
2022-12-16T19:43:14.258Z,-0.28
2022-12-16T19:46:37.543Z,-0.31
2022-12-16T19:50:01.195Z,-0.29
2022-12-16T19:53:24.430Z,-0.29
2022-12-16T19:56:47.900Z,-0.30
2022-12-16T20:00:11.128Z,-0.34
2022-12-16T20:03:37.691Z,-0.40
2022-12-16T20:07:01.174Z,-0.44
2022-12-16T20:10:25.983Z,-0.51
2022-12-16T20:13:49.148Z,-0.52
2022-12-16T20:17:12.198Z,-0.55
2022-12-16T20:20:35.868Z,-0.57
2022-12-16T20:23:59.444Z,-0.58
2022-12-16T20:27:23.116Z,-0.59
2022-12-16T20:30:47.302Z,-0.58
2022-12-16T20:34:15.029Z,-0.58
2022-12-16T20:37:38.445Z,-0.61
2022-12-16T20:41:01.911Z,-0.62
2022-12-16T20:44:26.300Z,-0.67
2022-12-16T20:47:49.464Z,-0.67
2022-12-16T20:51:22.592Z,-0.65
2022-12-16T20:54:49.407Z,-0.60
2022-12-16T20:58:12.671Z,-0.63
2022-12-16T21:01:36.332Z,-0.66
2022-12-16T21:05:00.328Z,-0.67
2022-12-16T21:08:24.474Z,-0.68
2022-12-16T21:11:47.982Z,-0.70
2022-12-16T21:15:11.553Z,-0.73
2022-12-16T21:18:35.227Z,-0.74
2022-12-16T21:21:58.493Z,-0.73
2022-12-16T21:25:24.795Z,-0.79
2022-12-16T21:28:48.913Z,-0.86
2022-12-16T21:32:24.780Z,-0.87
2022-12-16T21:35:47.589Z,-0.87
2022-12-16T21:39:10.633Z,-0.83
2022-12-16T21:42:36.743Z,-0.82
2022-12-16T21:46:02.030Z,-0.84
2022-12-16T21:49:25.602Z,-0.86
2022-12-16T21:52:48.865Z,-0.91
2022-12-16T21:56:14.074Z,-0.90
2022-12-16T21:59:37.235Z,-0.93
2022-12-16T22:03:00.400Z,-0.93
2022-12-16T22:06:24.278Z,-0.89
2022-12-16T22:09:47.952Z,-0.88
2022-12-16T22:13:11.114Z,-0.95
2022-12-16T22:16:34.798Z,-1.12
2022-12-16T22:19:58.049Z,-1.27
2022-12-16T22:23:37.068Z,-1.31
2022-12-16T22:27:00.660Z,-1.40
2022-12-16T22:30:25.691Z,-1.52
2022-12-16T22:33:49.119Z,-1.64
2022-12-16T22:37:12.909Z,-1.72
2022-12-16T22:40:36.150Z,-1.76
2022-12-16T22:43:59.338Z,-1.82
2022-12-16T22:47:22.805Z,-1.89
2022-12-16T22:50:45.148Z,-1.92
2022-12-16T22:54:09.746Z,-1.95
2022-12-16T22:57:33.013Z,-1.92
2022-12-16T23:00:56.888Z,-1.83
2022-12-16T23:04:20.468Z,-1.75
2022-12-16T23:07:43.832Z,-1.67
2022-12-16T23:11:14.259Z,-1.63
2022-12-16T23:14:48.908Z,-1.63
2022-12-16T23:18:12.222Z,-1.64
2022-12-16T23:21:37.675Z,-1.65
2022-12-16T23:25:00.940Z,-1.64
2022-12-16T23:28:24.474Z,-1.62
2022-12-16T23:31:48.016Z,-1.62
2022-12-16T23:35:11.651Z,-1.63
2022-12-16T23:38:34.912Z,-1.57
2022-12-16T23:41:58.088Z,-1.50
2022-12-16T23:45:36.192Z,-1.45
2022-12-16T23:48:59.433Z,-1.42
2022-12-16T23:52:22.823Z,-1.40
2022-12-16T23:55:46.095Z,-1.43
2022-12-16T23:59:09.762Z,-1.48
